Time;durP1;ratioP1;P1;durP2;ratioP2;P2;SDS_P1;SDS_P2;PMS_P1;PMS_P2;Temp;Humidity;BMP_temperature;BMP_pressure;BME280_temperature;BME280_humidity;BME280_pressure;Samples;Min_cycle;Max_cycle;Signal;HPM_P1;HPM_P2
2023/01/27 00:01:12;;;;;;;;;;;;;;;4.75;73.30;102236.66;5111627;28;5092;-77
2023/01/27 00:03:38;;;;;;;;;;;;;;;4.72;73.39;102236.09;5097429;28;5199;-77
2023/01/27 00:06:05;;;;;;;;;;;;;;;4.74;73.54;102228.81;5094897;28;4539;-77
2023/01/27 00:08:31;;;;;;;;;;;;;;;4.72;73.33;102209.41;5106133;27;4294;-77
2023/01/27 00:13:38;;;;;;;;;;;;;;;4.72;73.23;102202.22;5112276;27;4710;-77
2023/01/27 00:16:05;;;;;;;;;;;;;;;4.76;73.09;102197.44;5112541;27;4442;-77
2023/01/27 00:18:32;;;;;;;;;;;;;;;4.75;73.27;102203.78;5112412;27;4331;-77
2023/01/27 00:26:26;;;;;;;;;;;;;;;4.74;73.24;102212.78;5102656;27;4423;-77
2023/01/27 00:28:53;;;;;;;;;;;;;;;4.75;73.22;102206.44;5102863;27;4499;-77
2023/01/27 00:34:08;;;;;;;;;;;;;;;4.75;73.11;102201.94;5114279;27;4860;-77
2023/01/27 00:36:35;;;;;;;;;;;;;;;4.74;73.25;102202.94;5113296;27;4790;-77
2023/01/27 00:39:01;;;;;;;;;;;;;;;4.81;73.16;102200.53;5101110;27;4569;-77
2023/01/27 00:41:28;;;;;;;;;;;;;;;4.88;72.82;102204.34;5098658;27;5172;-77
2023/01/27 00:43:54;;;;;;;;;;;;;;;4.83;72.82;102209.25;5118510;27;4888;-77
2023/01/27 00:46:21;;;;;;;;;;;;;;;4.80;73.20;102206.88;5115275;27;4668;-77
2023/01/27 00:48:47;;;;;;;;;;;;;;;4.82;73.00;102209.38;5116203;27;4621;-77
2023/01/27 00:51:14;;;;;;;;;;;;;;;4.87;72.90;102212.47;5115188;27;4851;-77
2023/01/27 00:53:40;;;;;;;;;;;;;;;4.80;72.93;102219.38;5105031;27;4506;-77
2023/01/27 00:56:07;;;;;;;;;;;;;;;4.85;72.87;102217.13;5114147;27;4541;-77
2023/01/27 00:58:33;;;;;;;;;;;;;;;4.83;72.72;102214.59;5118064;27;4567;-77
2023/01/27 01:01:00;;;;;;;;;;;;;;;4.89;72.70;102216.69;5099478;27;4959;-77
2023/01/27 01:03:29;;;;;;;;;;;;;;;4.86;72.83;102217.00;5115662;27;4825;-77
2023/01/27 01:05:56;;;;;;;;;;;;;;;4.84;72.84;102216.28;5112683;27;4536;-77
2023/01/27 01:08:23;;;;;;;;;;;;;;;4.81;73.13;102219.22;5087769;27;5092;-77
2023/01/27 01:10:49;;;;;;;;;;;;;;;4.82;73.14;102228.91;5111599;27;4347;-77
2023/01/27 01:13:16;;;;;;;;;;;;;;;4.82;72.97;102222.75;5113016;27;4356;-77
2023/01/27 01:15:43;;;;;;;;;;;;;;;4.79;73.11;102229.19;5110378;27;4819;-77
2023/01/27 01:18:09;;;;;;;;;;;;;;;4.82;73.03;102225.41;5092824;28;4463;-77
2023/01/27 01:20:36;;;;;;;;;;;;;;;4.84;72.92;102224.28;5092217;28;4569;-77
2023/01/27 01:23:02;;;;;;;;;;;;;;;4.83;72.98;102219.94;5090765;28;4712;-77
2023/01/27 01:25:29;;;;;;;;;;;;;;;4.84;72.92;102221.63;5096406;28;4987;-77
2023/01/27 01:27:56;;;;;;;;;;;;;;;4.88;72.66;102201.69;5093260;28;4480;-77
2023/01/27 01:30:25;;;;;;;;;;;;;;;4.84;72.94;102208.25;5092491;28;4428;-77
2023/01/27 01:32:51;;;;;;;;;;;;;;;4.85;72.87;102209.09;5096410;28;4475;-77
2023/01/27 01:35:18;;;;;;;;;;;;;;;4.83;72.95;102209.25;5105587;27;4592;-77
2023/01/27 01:37:44;;;;;;;;;;;;;;;4.83;72.83;102203.91;5100510;28;4444;-77
2023/01/27 01:40:11;;;;;;;;;;;;;;;4.89;72.72;102202.50;5091753;28;4484;-77
2023/01/27 01:42:38;;;;;;;;;;;;;;;4.89;72.71;102205.19;5093473;28;4747;-77
2023/01/27 01:45:04;;;;;;;;;;;;;;;4.87;72.80;102213.31;5093243;27;4542;-77
2023/01/27 01:47:31;;;;;;;;;;;;;;;4.86;72.75;102214.31;5096509;27;4779;-77
2023/01/27 01:49:57;;;;;;;;;;;;;;;4.91;72.47;102208.53;5093014;28;5054;-77
2023/01/27 01:52:24;;;;;;;;;;;;;;;4.88;72.67;102214.16;5093547;28;4812;-77
2023/01/27 01:54:50;;;;;;;;;;;;;;;4.86;72.74;102214.31;5074876;28;4706;-77
2023/01/27 01:57:17;;;;;;;;;;;;;;;4.83;72.84;102219.09;5073835;28;4926;-77
2023/01/27 01:59:43;;;;;;;;;;;;;;;4.91;72.50;102221.88;5074868;28;4911;-77
2023/01/27 02:02:10;;;;;;;;;;;;;;;4.86;72.91;102219.66;5075465;28;4716;-77
2023/01/27 02:04:36;;;;;;;;;;;;;;;4.93;72.41;102219.94;5073992;28;4512;-77
2023/01/27 02:07:03;;;;;;;;;;;;;;;4.93;72.51;102222.59;5073883;28;4485;-77
2023/01/27 02:09:29;;;;;;;;;;;;;;;4.99;72.42;102214.00;5073511;28;4125;-77
2023/01/27 02:11:56;;;;;;;;;;;;;;;4.99;72.42;102216.69;5070907;28;4422;-77
2023/01/27 02:14:23;;;;;;;;;;;;;;;4.91;72.49;102208.53;5070951;28;4646;-77
2023/01/27 02:16:49;;;;;;;;;;;;;;;4.93;72.67;102203.91;5076217;27;4169;-77
2023/01/27 02:19:16;;;;;;;;;;;;;;;4.88;72.57;102196.34;5092034;27;4495;-76
2023/01/27 02:21:42;;;;;;;;;;;;;;;4.93;72.12;102193.22;5090638;27;4798;-77
2023/01/27 02:24:11;;;;;;;;;;;;;;;4.89;72.81;102195.34;5099873;27;4522;-77
2023/01/27 02:26:37;;;;;;;;;;;;;;;4.93;72.42;102201.22;5091434;27;4586;-77
2023/01/27 02:29:04;;;;;;;;;;;;;;;4.98;72.35;102199.00;5078453;27;4372;-77
2023/01/27 02:31:31;;;;;;;;;;;;;;;4.93;72.41;102183.38;5077776;27;4315;-77
2023/01/27 02:33:57;;;;;;;;;;;;;;;4.91;72.35;102177.38;5089955;27;4917;-77
2023/01/27 02:36:24;;;;;;;;;;;;;;;4.98;72.30;102172.28;5095636;27;4415;-77
2023/01/27 02:38:50;;;;;;;;;;;;;;;4.57;72.16;102104.06;5104231;27;4366;-77
2023/01/27 02:41:17;;;;;;;;;;;;;;;5.08;71.92;102166.91;5092969;27;4270;-77
2023/01/27 02:43:43;;;;;;;;;;;;;;;5.02;72.09;102165.66;5094992;27;4175;-77
2023/01/27 02:46:10;;;;;;;;;;;;;;;4.92;72.35;102157.69;5077505;27;4635;-77
2023/01/27 02:48:37;;;;;;;;;;;;;;;4.96;72.29;102155.56;5094912;27;4647;-77
2023/01/27 02:51:03;;;;;;;;;;;;;;;5.04;71.91;102150.34;5101961;27;4160;-77
2023/01/27 02:53:30;;;;;;;;;;;;;;;4.98;72.07;102153.59;5084859;27;4744;-77
2023/01/27 02:55:56;;;;;;;;;;;;;;;4.99;72.27;102147.25;5096754;27;4554;-77
2023/01/27 02:58:23;;;;;;;;;;;;;;;4.95;72.20;102149.38;5092003;27;4572;-77
2023/01/27 03:00:49;;;;;;;;;;;;;;;4.98;72.48;102148.25;5095519;27;4258;-77
2023/01/27 03:03:16;;;;;;;;;;;;;;;4.96;72.26;102159.06;5092185;27;4643;-77
2023/01/27 03:05:42;;;;;;;;;;;;;;;5.05;72.10;102167.19;5092123;27;4822;-77
2023/01/27 03:08:09;;;;;;;;;;;;;;;5.08;71.77;102161.56;5094563;27;4716;-77
2023/01/27 03:10:35;;;;;;;;;;;;;;;5.09;71.63;102156.09;5093834;27;4278;-77
2023/01/27 03:13:02;;;;;;;;;;;;;;;5.17;71.64;102163.38;5089027;27;4408;-77
2023/01/27 03:18:14;;;;;;;;;;;;;;;5.03;71.84;102172.69;5092907;27;5196;-77
2023/01/27 03:20:41;;;;;;;;;;;;;;;5.15;71.50;102157.34;5088597;27;4351;-77
2023/01/27 03:23:08;;;;;;;;;;;;;;;5.11;71.59;102164.78;5076762;27;4543;-77
2023/01/27 03:25:35;;;;;;;;;;;;;;;5.14;71.69;102164.50;5109252;27;4818;-77
2023/01/27 03:28:01;;;;;;;;;;;;;;;5.15;71.37;102147.50;5112490;27;4406;-77
2023/01/27 03:30:28;;;;;;;;;;;;;;;5.02;71.84;102141.63;5101329;27;4718;-77
2023/01/27 03:32:54;;;;;;;;;;;;;;;5.09;71.92;102150.75;5094396;27;4675;-77
2023/01/27 03:35:21;;;;;;;;;;;;;;;5.11;71.73;102146.09;5110043;27;4607;-78
2023/01/27 03:46:17;;;;;;;;;;;;;;;5.21;71.28;102140.75;5109521;27;4422;-77
2023/01/27 03:48:43;;;;;;;;;;;;;;;5.33;71.04;102136.06;5112971;27;5117;-77
2023/01/27 03:51:10;;;;;;;;;;;;;;;5.21;71.25;102140.75;5107708;28;5209;-77
2023/01/27 03:53:36;;;;;;;;;;;;;;;5.07;71.80;102146.53;5112141;28;4505;-77
2023/01/27 03:56:03;;;;;;;;;;;;;;;5.21;71.27;102143.41;5112037;28;4487;-77
2023/01/27 03:58:30;;;;;;;;;;;;;;;5.19;71.33;102142.72;5112752;28;5144;-77
2023/01/27 04:00:56;;;;;;;;;;;;;;;5.23;71.11;102141.41;5111352;28;4549;-77
2023/01/27 04:08:51;;;;;;;;;;;;;;;5.33;70.81;102150.25;5110147;28;5064;-77
2023/01/27 04:14:22;;;;;;;;;;;;;;;5.15;71.59;102144.00;5109535;28;4776;-77
2023/01/27 04:17:15;;;;;;;;;;;;;;;5.11;71.60;102143.41;5116089;28;4855;-77
2023/01/27 04:20:06;;;;;;;;;;;;;;;5.32;70.93;102158.41;5113472;28;4428;-77
2023/01/27 04:22:53;;;;;;;;;;;;;;;5.31;70.99;102152.22;5111543;28;5017;-77
2023/01/27 04:25:39;;;;;;;;;;;;;;;5.22;71.15;102143.25;5111388;28;4354;-77
2023/01/27 04:28:06;;;;;;;;;;;;;;;5.23;71.30;102139.59;5098325;28;5278;-77
2023/01/27 04:30:33;;;;;;;;;;;;;;;5.27;70.99;102139.31;5091972;28;4564;-77
2023/01/27 04:33:03;;;;;;;;;;;;;;;5.23;71.25;102136.06;5112635;28;5191;-77
2023/01/27 04:35:30;;;;;;;;;;;;;;;5.36;71.01;102125.91;5112006;28;4887;-77
2023/01/27 04:37:56;;;;;;;;;;;;;;;5.40;70.72;102123.78;5113627;28;4395;-77
2023/01/27 04:40:23;;;;;;;;;;;;;;;5.33;70.84;102125.38;5112180;28;4485;-77
2023/01/27 04:42:49;;;;;;;;;;;;;;;5.24;71.05;102119.91;5110227;28;4475;-77
2023/01/27 04:45:16;;;;;;;;;;;;;;;5.29;71.09;102116.78;5099658;28;4735;-77
2023/01/27 04:47:42;;;;;;;;;;;;;;;5.37;70.64;102105.38;5098524;28;4125;-77
2023/01/27 04:50:09;;;;;;;;;;;;;;;5.50;70.16;102113.03;5115330;28;4080;-77
2023/01/27 04:52:35;;;;;;;;;;;;;;;5.34;70.80;102111.84;5100263;28;4062;-77
2023/01/27 04:55:02;;;;;;;;;;;;;;;5.48;70.21;102107.84;5104034;27;4914;-77
2023/01/27 04:57:29;;;;;;;;;;;;;;;5.34;70.71;102105.66;5091224;27;4474;-77
2023/01/27 04:59:55;;;;;;;;;;;;;;;5.41;70.55;102099.59;5087559;27;4567;-77
2023/01/27 05:02:22;;;;;;;;;;;;;;;5.44;70.19;102109.13;5101206;27;4835;-78
2023/01/27 05:04:48;;;;;;;;;;;;;;;5.33;70.82;102106.66;5100674;27;4647;-77
2023/01/27 05:07:15;;;;;;;;;;;;;;;5.48;70.38;102107.84;5082737;27;4646;-77
2023/01/27 05:09:42;;;;;;;;;;;;;;;5.35;70.84;102108.19;5090972;27;4422;-77
2023/01/27 05:12:09;;;;;;;;;;;;;;;5.46;70.57;102104.47;5101031;27;4488;-77
2023/01/27 05:14:35;;;;;;;;;;;;;;;5.39;70.70;102098.06;5093109;27;4404;-77
2023/01/27 05:17:02;;;;;;;;;;;;;;;5.45;70.43;102103.66;5096963;27;4432;-77
2023/01/27 05:19:28;;;;;;;;;;;;;;;5.47;70.32;102098.13;5097345;27;4635;-77
2023/01/27 05:21:55;;;;;;;;;;;;;;;5.47;70.14;102098.13;5094737;27;4449;-77
2023/01/27 05:24:21;;;;;;;;;;;;;;;5.45;70.32;102094.78;5099439;27;4376;-77
2023/01/27 05:26:48;;;;;;;;;;;;;;;5.51;70.11;102082.66;5095653;27;4648;-77
2023/01/27 05:29:15;;;;;;;;;;;;;;;5.40;70.64;102065.84;5102319;27;4966;-77
2023/01/27 05:31:41;;;;;;;;;;;;;;;5.47;70.24;102064.25;5099068;27;4593;-77
2023/01/27 05:34:08;;;;;;;;;;;;;;;5.41;70.43;102067.53;5102452;27;4901;-77
2023/01/27 05:36:34;;;;;;;;;;;;;;;5.47;70.17;102066.06;5100094;27;4720;-77
2023/01/27 05:39:01;;;;;;;;;;;;;;;5.53;70.20;102069.97;5098072;27;4533;-77
2023/01/27 05:41:27;;;;;;;;;;;;;;;5.51;70.21;102069.31;5094564;27;4444;-77
2023/01/27 05:43:54;;;;;;;;;;;;;;;5.52;70.04;102077.16;5103759;27;4594;-77
2023/01/27 05:46:20;;;;;;;;;;;;;;;5.56;70.15;102072.34;5095567;27;4728;-78
2023/01/27 05:48:47;;;;;;;;;;;;;;;5.46;70.23;102065.22;5100491;27;4454;-77
2023/01/27 05:51:13;;;;;;;;;;;;;;;5.57;70.06;102060.69;5109295;27;5025;-77
2023/01/27 05:53:40;;;;;;;;;;;;;;;5.50;70.23;102068.47;5106587;27;4928;-77
2023/01/27 05:56:07;;;;;;;;;;;;;;;5.53;69.94;102069.97;5115037;27;4535;-78
2023/01/27 05:58:34;;;;;;;;;;;;;;;5.45;70.11;102068.91;5110512;27;4423;-77
2023/01/27 06:01:00;;;;;;;;;;;;;;;5.57;70.00;102069.53;5097800;27;4365;-77
2023/01/27 06:03:27;;;;;;;;;;;;;;;5.54;69.86;102077.03;5111825;27;4745;-77
2023/01/27 06:05:53;;;;;;;;;;;;;;;5.50;70.06;102068.47;5111596;27;5066;-77
2023/01/27 06:08:20;;;;;;;;;;;;;;;5.63;69.98;102070.78;5107400;27;4712;-77
2023/01/27 06:10:47;;;;;;;;;;;;;;;5.54;69.75;102080.53;5097012;27;4743;-77
2023/01/27 06:13:13;;;;;;;;;;;;;;;5.60;69.98;102079.94;5111468;27;4696;-77
2023/01/27 06:15:40;;;;;;;;;;;;;;;5.57;69.86;102079.41;5112702;27;4634;-77
2023/01/27 06:18:06;;;;;;;;;;;;;;;5.59;69.88;102083.59;5114119;27;5070;-77
2023/01/27 06:20:33;;;;;;;;;;;;;;;5.63;69.90;102084.13;5109411;27;4388;-77
2023/01/27 06:23:00;;;;;;;;;;;;;;;5.71;69.69;102081.56;5113922;27;4974;-77
2023/01/27 06:25:27;;;;;;;;;;;;;;;5.68;69.50;102077.34;5113263;27;5106;-77
2023/01/27 06:27:53;;;;;;;;;;;;;;;5.57;69.99;102080.22;5115831;27;5012;-77
2023/01/27 06:30:20;;;;;;;;;;;;;;;5.64;69.97;102081.31;5111487;27;4688;-77
2023/01/27 06:32:46;;;;;;;;;;;;;;;5.75;69.33;102080.25;5115059;27;4697;-77
2023/01/27 06:35:13;;;;;;;;;;;;;;;5.57;69.63;102085.56;5110901;27;4585;-77
2023/01/27 06:37:39;;;;;;;;;;;;;;;5.64;69.95;102085.81;5113707;27;4534;-77
2023/01/27 06:40:08;;;;;;;;;;;;;;;5.68;69.67;102079.19;5112114;27;4537;-77
2023/01/27 06:42:34;;;;;;;;;;;;;;;5.60;69.80;102081.78;5112354;27;4375;-77
2023/01/27 06:45:01;;;;;;;;;;;;;;;5.70;69.69;102079.88;5110742;27;4442;-77
2023/01/27 06:47:27;;;;;;;;;;;;;;;5.66;69.64;102075.81;5113268;27;4456;-77
2023/01/27 06:49:54;;;;;;;;;;;;;;;5.64;69.74;102078.63;5074167;27;4732;-77
2023/01/27 06:52:20;;;;;;;;;;;;;;;5.74;69.46;102075.09;5065460;27;4631;-77
2023/01/27 06:54:47;;;;;;;;;;;;;;;5.79;69.32;102076.28;5088633;27;4668;-77
2023/01/27 06:57:15;;;;;;;;;;;;;;;5.69;69.61;102075.53;5106806;27;4493;-77
2023/01/27 06:59:41;;;;;;;;;;;;;;;5.68;69.60;102064.00;5109699;27;4946;-77
2023/01/27 07:02:08;;;;;;;;;;;;;;;5.65;69.61;102066.97;5110119;27;4595;-77
2023/01/27 07:04:34;;;;;;;;;;;;;;;5.70;69.46;102063.81;5112858;27;4638;-77
2023/01/27 07:07:01;;;;;;;;;;;;;;;5.70;69.73;102075.34;5070814;27;4725;-77
2023/01/27 07:09:27;;;;;;;;;;;;;;;5.71;69.47;102073.53;5088867;27;4051;-77
2023/01/27 07:11:54;;;;;;;;;;;;;;;5.69;69.48;102076.34;5094346;27;4630;-77
2023/01/27 07:14:20;;;;;;;;;;;;;;;5.69;69.56;102072.84;5085802;27;4448;-77
2023/01/27 07:16:47;;;;;;;;;;;;;;;5.68;69.47;102066.66;5085710;27;4703;-77
2023/01/27 07:19:15;;;;;;;;;;;;;;;5.69;69.58;102064.81;5082205;27;4234;-77
2023/01/27 07:21:42;;;;;;;;;;;;;;;5.73;69.68;102058.19;5088284;27;4289;-77
2023/01/27 07:24:08;;;;;;;;;;;;;;;5.73;69.55;102052.81;5104603;27;4979;-77
2023/01/27 07:26:35;;;;;;;;;;;;;;;5.63;69.78;102054.75;5109160;27;4418;-77
2023/01/27 07:29:01;;;;;;;;;;;;;;;5.72;69.55;102048.47;5108834;27;4446;-77
2023/01/27 07:31:28;;;;;;;;;;;;;;;5.78;69.28;102044.38;5095125;27;5283;-77
2023/01/27 07:33:54;;;;;;;;;;;;;;;5.73;69.33;102052.81;5107877;27;4442;-77
2023/01/27 07:36:21;;;;;;;;;;;;;;;5.71;69.67;102057.50;5111949;27;4711;-77
2023/01/27 07:38:47;;;;;;;;;;;;;;;5.80;69.29;102058.44;5110479;27;4560;-77
2023/01/27 07:41:14;;;;;;;;;;;;;;;5.73;69.52;102054.66;5107476;27;4444;-77
2023/01/27 07:43:40;;;;;;;;;;;;;;;5.72;69.61;102056.50;5094050;28;4375;-77
2023/01/27 07:46:07;;;;;;;;;;;;;;;5.80;69.41;102051.25;5096744;27;4484;-77
2023/01/27 07:48:34;;;;;;;;;;;;;;;5.84;69.28;102051.78;5074386;27;5439;-77
2023/01/27 07:51:00;;;;;;;;;;;;;;;5.81;69.20;102054.75;5076017;28;4327;-77
2023/01/27 07:53:27;;;;;;;;;;;;;;;5.76;69.43;102051.69;5111264;28;4763;-77
2023/01/27 07:55:53;;;;;;;;;;;;;;;5.78;69.49;102057.72;5113029;28;4542;-77
2023/01/27 07:58:20;;;;;;;;;;;;;;;5.72;69.42;102058.34;5095525;28;4527;-77
2023/01/27 08:00:46;;;;;;;;;;;;;;;5.75;69.54;102058.88;5110434;28;4794;-77
2023/01/27 08:03:13;;;;;;;;;;;;;;;5.92;68.87;102058.03;5109814;28;4528;-77
2023/01/27 08:05:41;;;;;;;;;;;;;;;5.76;69.65;102055.19;5112140;28;4962;-77
2023/01/27 08:08:08;;;;;;;;;;;;;;;5.80;69.37;102045.91;5113003;28;4381;-77
2023/01/27 08:10:35;;;;;;;;;;;;;;;5.83;69.23;102050.94;5102386;28;4411;-77
2023/01/27 08:13:01;;;;;;;;;;;;;;;5.88;69.22;102053.13;5083000;28;4409;-77
2023/01/27 08:15:28;;;;;;;;;;;;;;;5.84;69.28;102049.09;5111160;28;4748;-77
2023/01/27 08:17:54;;;;;;;;;;;;;;;5.88;69.04;102058.50;5095820;28;4785;-77
2023/01/27 08:20:21;;;;;;;;;;;;;;;5.85;69.05;102050.78;5095829;28;4835;-77
2023/01/27 08:22:47;;;;;;;;;;;;;;;5.86;69.08;102055.97;5110693;28;4397;-77
2023/01/27 08:25:14;;;;;;;;;;;;;;;5.80;69.36;102059.28;5111938;28;4832;-77
2023/01/27 08:27:40;;;;;;;;;;;;;;;5.83;69.47;102068.81;5113371;28;4288;-77
2023/01/27 08:30:07;;;;;;;;;;;;;;;5.81;69.28;102058.25;5111925;27;4433;-77
2023/01/27 08:32:33;;;;;;;;;;;;;;;5.76;69.51;102065.06;5118426;27;4927;-77
2023/01/27 08:35:00;;;;;;;;;;;;;;;5.88;68.96;102063.84;5117826;27;4788;-77
2023/01/27 08:37:26;;;;;;;;;;;;;;;5.79;69.42;102070.94;5114986;27;5018;-77
2023/01/27 08:39:53;;;;;;;;;;;;;;;5.88;69.13;102062.03;5106852;27;4571;-77
2023/01/27 08:42:20;;;;;;;;;;;;;;;5.93;68.86;102064.25;5098424;27;4593;-77
2023/01/27 08:44:47;;;;;;;;;;;;;;;5.89;69.26;102073.56;5115031;27;4352;-77
2023/01/27 08:47:14;;;;;;;;;;;;;;;5.90;69.25;102070.72;5099149;27;4872;-77
2023/01/27 08:49:40;;;;;;;;;;;;;;;5.90;69.15;102070.72;5118535;27;4840;-78
2023/01/27 08:52:07;;;;;;;;;;;;;;;5.88;69.11;102066.50;5116520;27;4616;-77
2023/01/27 08:54:33;;;;;;;;;;;;;;;5.88;69.04;102066.50;5115770;27;4788;-78
2023/01/27 08:57:00;;;;;;;;;;;;;;;5.86;69.40;102071.19;5115242;27;5335;-78
2023/01/27 08:59:27;;;;;;;;;;;;;;;5.84;69.49;102060.63;5117004;27;4920;-78
2023/01/27 09:01:53;;;;;;;;;;;;;;;5.93;69.03;102056.25;5114603;27;4610;-78
2023/01/27 09:04:20;;;;;;;;;;;;;;;5.89;69.30;102053.00;5114929;27;4902;-78
2023/01/27 09:06:47;;;;;;;;;;;;;;;5.94;68.92;102043.69;5115540;27;4874;-78
2023/01/27 09:09:13;;;;;;;;;;;;;;;5.91;69.03;102042.13;5115008;27;4513;-78
2023/01/27 09:11:40;;;;;;;;;;;;;;;5.84;69.37;102036.56;5116116;27;5041;-78
2023/01/27 09:14:06;;;;;;;;;;;;;;;5.95;68.96;102027.53;5116659;27;4422;-78
2023/01/27 09:16:33;;;;;;;;;;;;;;;5.99;68.93;102017.34;5115238;27;4690;-78
2023/01/27 09:18:59;;;;;;;;;;;;;;;5.86;69.20;102020.38;5116073;27;4971;-78
2023/01/27 09:21:26;;;;;;;;;;;;;;;6.04;68.81;102010.53;5113676;27;4690;-78
2023/01/27 09:23:53;;;;;;;;;;;;;;;6.02;68.82;102001.81;5116573;27;4922;-78
2023/01/27 09:26:19;;;;;;;;;;;;;;;5.91;69.16;102002.88;5114294;27;4665;-78
2023/01/27 09:28:46;;;;;;;;;;;;;;;6.11;68.47;102002.72;5115750;27;4485;-78
2023/01/27 09:31:12;;;;;;;;;;;;;;;6.08;68.70;101995.03;5112203;27;6336;-78
2023/01/27 09:33:39;;;;;;;;;;;;;;;5.92;69.09;101993.03;5117071;27;4466;-78
2023/01/27 09:36:05;;;;;;;;;;;;;;;5.92;68.92;101988.50;5113646;27;4791;-78
2023/01/27 09:38:32;;;;;;;;;;;;;;;6.04;68.83;101996.34;5114378;27;4753;-78
2023/01/27 09:40:58;;;;;;;;;;;;;;;6.02;68.61;101993.81;5114119;27;4810;-78
2023/01/27 09:43:25;;;;;;;;;;;;;;;5.99;68.87;101991.44;5115330;27;4255;-78
2023/01/27 09:45:51;;;;;;;;;;;;;;;5.97;68.94;101988.09;5103100;27;4766;-78
2023/01/27 09:48:18;;;;;;;;;;;;;;;5.99;68.81;101998.63;5113842;27;5665;-78
2023/01/27 09:50:45;;;;;;;;;;;;;;;5.99;68.80;101988.75;5113160;27;4301;-77
2023/01/27 09:53:13;;;;;;;;;;;;;;;6.05;68.90;101981.97;5113457;27;4232;-78
2023/01/27 09:55:39;;;;;;;;;;;;;;;6.06;68.57;101980.94;5112116;27;4481;-78
2023/01/27 09:58:06;;;;;;;;;;;;;;;6.03;68.73;101978.59;5115149;27;4882;-78
2023/01/27 10:00:32;;;;;;;;;;;;;;;5.94;69.29;101982.19;5101514;27;4841;-78
2023/01/27 10:02:59;;;;;;;;;;;;;;;6.00;68.72;101974.41;5098250;27;4825;-78
2023/01/27 10:05:25;;;;;;;;;;;;;;;6.02;69.00;101980.44;5094980;27;4737;-78
2023/01/27 10:07:52;;;;;;;;;;;;;;;6.00;68.97;101982.44;5114343;27;4349;-78
2023/01/27 10:10:18;;;;;;;;;;;;;;;6.04;68.60;101993.66;5112048;27;4795;-78
2023/01/27 10:12:45;;;;;;;;;;;;;;;6.03;69.02;101970.56;5108670;27;4700;-78
2023/01/27 10:15:11;;;;;;;;;;;;;;;6.08;68.64;101965.59;5094224;27;4331;-78
2023/01/27 10:17:38;;;;;;;;;;;;;;;6.00;69.17;101963.72;5109441;27;4662;-78
2023/01/27 10:20:04;;;;;;;;;;;;;;;6.03;68.94;101966.06;5112492;27;4333;-78
2023/01/27 10:22:31;;;;;;;;;;;;;;;6.00;69.42;101969.06;5111854;27;4419;-78
2023/01/27 10:24:58;;;;;;;;;;;;;;;6.10;68.94;101963.63;5111609;27;4328;-78
2023/01/27 10:27:25;;;;;;;;;;;;;;;6.11;68.63;101963.44;5114729;27;4716;-78
2023/01/27 10:29:51;;;;;;;;;;;;;;;6.01;69.13;101962.72;5112159;27;4576;-78
2023/01/27 10:32:18;;;;;;;;;;;;;;;5.45;69.54;101879.19;5113103;27;4848;-78
2023/01/27 10:34:44;;;;;;;;;;;;;;;5.97;69.32;101950.66;5095562;27;4818;-78
2023/01/27 10:37:11;;;;;;;;;;;;;;;5.93;69.35;101946.59;5096475;27;4833;-78
2023/01/27 10:39:40;;;;;;;;;;;;;;;6.05;69.01;101949.84;5111217;27;4906;-78
2023/01/27 10:42:06;;;;;;;;;;;;;;;6.04;69.55;101958.88;5113983;27;4383;-78
2023/01/27 10:44:33;;;;;;;;;;;;;;;5.94;69.22;101958.97;5111833;27;4600;-78
2023/01/27 10:46:59;;;;;;;;;;;;;;;6.00;69.19;101960.19;5109367;27;4445;-77
2023/01/27 10:49:26;;;;;;;;;;;;;;;5.96;69.58;101950.78;5110557;27;4765;-78
2023/01/27 10:51:52;;;;;;;;;;;;;;;5.99;69.35;101954.00;5114320;27;4755;-78
2023/01/27 10:54:19;;;;;;;;;;;;;;;6.02;69.17;101951.00;5113462;27;5298;-78
2023/01/27 10:56:46;;;;;;;;;;;;;;;5.88;69.50;101947.03;5112766;27;4416;-78
2023/01/27 10:59:12;;;;;;;;;;;;;;;5.90;69.64;101939.69;5111821;27;4344;-78
2023/01/27 11:01:39;;;;;;;;;;;;;;;5.82;69.35;101917.38;5112910;27;4379;-78
2023/01/27 11:04:05;;;;;;;;;;;;;;;5.95;69.68;101927.72;5100001;27;4276;-78
2023/01/27 11:06:32;;;;;;;;;;;;;;;5.88;69.97;101924.78;5109443;27;4719;-78
2023/01/27 11:08:58;;;;;;;;;;;;;;;5.87;69.85;101920.44;5113211;27;4844;-78
2023/01/27 11:14:09;;;;;;;;;;;;;;;5.80;70.49;101914.88;5112119;27;4279;-78
2023/01/27 11:16:36;;;;;;;;;;;;;;;5.95;69.74;101909.84;5110605;27;5053;-78
2023/01/27 11:19:03;;;;;;;;;;;;;;;5.85;70.28;101903.72;5111436;27;4498;-78
2023/01/27 11:21:29;;;;;;;;;;;;;;;5.95;69.83;101896.47;5112706;27;4620;-78
2023/01/27 11:23:58;;;;;;;;;;;;;;;5.95;69.62;101901.81;5110103;27;4416;-78
2023/01/27 11:26:24;;;;;;;;;;;;;;;5.89;69.92;101889.06;5113715;27;4273;-77
2023/01/27 11:28:51;;;;;;;;;;;;;;;5.85;70.04;101893.00;5111164;27;4867;-78
2023/01/27 11:31:17;;;;;;;;;;;;;;;5.98;69.68;101895.31;5098762;27;4800;-78
2023/01/27 11:33:44;;;;;;;;;;;;;;;6.03;69.58;101893.00;5095935;28;5113;-78
2023/01/27 11:36:10;;;;;;;;;;;;;;;5.96;69.71;101884.78;5115290;27;4740;-78
2023/01/27 11:38:37;;;;;;;;;;;;;;;5.99;69.56;101879.09;5112807;27;5288;-78
2023/01/27 11:41:04;;;;;;;;;;;;;;;5.52;69.65;101806.41;5111837;27;4835;-78
2023/01/27 11:43:30;;;;;;;;;;;;;;;5.99;69.58;101879.09;5109581;27;4398;-78
2023/01/27 11:45:57;;;;;;;;;;;;;;;5.93;69.80;101869.03;5112934;27;4603;-78
2023/01/27 11:48:23;;;;;;;;;;;;;;;5.96;69.94;101871.41;5109620;27;4861;-78
2023/01/27 11:50:50;;;;;;;;;;;;;;;5.95;69.96;101872.41;5109861;27;4625;-78
2023/01/27 11:53:16;;;;;;;;;;;;;;;5.93;70.07;101855.66;5093593;28;4814;-78
2023/01/27 11:55:43;;;;;;;;;;;;;;;5.98;69.78;101850.69;5096738;28;4323;-78
2023/01/27 11:58:10;;;;;;;;;;;;;;;5.95;69.94;101855.53;5112528;28;4836;-78
2023/01/27 12:00:36;;;;;;;;;;;;;;;5.92;70.13;101853.97;5113260;28;4791;-78
2023/01/27 12:03:03;;;;;;;;;;;;;;;5.83;70.47;101844.22;5115170;27;4936;-78
2023/01/27 12:05:29;;;;;;;;;;;;;;;5.88;70.10;101839.22;5111871;27;4776;-79
2023/01/27 12:07:56;;;;;;;;;;;;;;;5.94;70.06;101840.47;5116620;27;5259;-78
2023/01/27 12:10:22;;;;;;;;;;;;;;;5.93;69.94;101820.91;5116081;27;4807;-79
2023/01/27 12:12:49;;;;;;;;;;;;;;;5.93;70.27;101820.91;5114273;27;4475;-79
2023/01/27 12:15:15;;;;;;;;;;;;;;;5.92;70.18;101814.69;5112910;27;4543;-78
2023/01/27 12:17:42;;;;;;;;;;;;;;;5.90;70.33;101808.66;5115746;27;4779;-79
2023/01/27 12:20:08;;;;;;;;;;;;;;;5.92;70.20;101819.22;5115265;27;4823;-78
2023/01/27 12:22:35;;;;;;;;;;;;;;;5.90;70.31;101816.69;5117194;27;4883;-79
2023/01/27 12:25:01;;;;;;;;;;;;;;;5.85;70.52;101808.31;5116230;27;5710;-78
2023/01/27 12:27:28;;;;;;;;;;;;;;;5.83;70.64;101802.28;5114369;27;4699;-79
2023/01/27 12:29:55;;;;;;;;;;;;;;;5.87;70.54;101803.63;5097090;27;4607;-79
2023/01/27 12:32:21;;;;;;;;;;;;;;;5.78;70.90;101803.75;5117503;27;4396;-79
2023/01/27 12:34:48;;;;;;;;;;;;;;;5.81;70.89;101800.75;5099778;27;5284;-78
2023/01/27 12:37:14;;;;;;;;;;;;;;;5.85;70.79;101788.72;5116768;27;4827;-79
2023/01/27 12:39:41;;;;;;;;;;;;;;;5.70;71.06;101780.47;5118593;27;4792;-79
2023/01/27 12:42:08;;;;;;;;;;;;;;;5.74;71.27;101786.34;5115536;27;4737;-79
2023/01/27 12:44:34;;;;;;;;;;;;;;;5.77;71.14;101773.50;5113427;27;4522;-79
2023/01/27 12:47:01;;;;;;;;;;;;;;;5.69;71.57;101768.94;5114009;27;4873;-79
2023/01/27 12:49:27;;;;;;;;;;;;;;;5.71;71.92;101758.09;5112204;27;4800;-79
2023/01/27 12:51:54;;;;;;;;;;;;;;;5.69;71.58;101760.09;5115704;27;4840;-78
2023/01/27 12:54:21;;;;;;;;;;;;;;;5.61;71.95;101760.03;5115695;27;4920;-79
2023/01/27 12:56:47;;;;;;;;;;;;;;;5.59;72.00;101754.84;5113434;27;5082;-79
2023/01/27 12:59:14;;;;;;;;;;;;;;;5.60;72.20;101751.19;5113365;27;4985;-78
2023/01/27 13:01:42;;;;;;;;;;;;;;;5.62;72.23;101746.53;5115042;27;4775;-78
2023/01/27 13:04:09;;;;;;;;;;;;;;;5.58;72.11;101738.97;5111922;27;4784;-79
2023/01/27 13:06:35;;;;;;;;;;;;;;;5.54;72.42;101742.97;5114749;27;5046;-78
2023/01/27 13:09:02;;;;;;;;;;;;;;;5.59;72.36;101743.31;5097292;27;4407;-79
2023/01/27 13:11:28;;;;;;;;;;;;;;;5.62;72.20;101745.69;5112989;27;4843;-78
2023/01/27 13:13:55;;;;;;;;;;;;;;;5.61;72.05;101742.16;5102425;27;4617;-78
2023/01/27 13:16:21;;;;;;;;;;;;;;;5.65;72.32;101737.34;5112087;27;4850;-79
2023/01/27 13:18:48;;;;;;;;;;;;;;;5.67;72.04;101730.81;5103773;27;4187;-78
2023/01/27 13:21:15;;;;;;;;;;;;;;;5.66;72.32;101731.81;5100394;27;4650;-78
2023/01/27 13:23:41;;;;;;;;;;;;;;;5.64;72.45;101732.97;5113891;27;4863;-79
2023/01/27 13:26:08;;;;;;;;;;;;;;;5.66;72.32;101725.66;5115242;27;4897;-78
2023/01/27 13:28:34;;;;;;;;;;;;;;;5.65;72.37;101722.16;5114808;27;5315;-78